Kurdjali, Bulgaria
Current Conditions -  °F | °C
As of 12:00 PM on Monday 24 Nov 2014 (Local Time) from LBPD Reporting Station
Broken Clouds Broken Clouds  
Wind Chill: 45°   Ceiling: 6500
Heat Index: 45°   Visibility: 6mi
Dew Point: 41°   Wind: 0mph
Humidity: 87%   Direction: NA
Pressure: 30.36"   Gusts: NA
Location:  41.65°N, 25.37°E
Report Text: LBPD 240900Z 00000MPS 9999 FEW034 BKN065 07/05 Q1028 NOSIG
Loading
Personal Weather Stations






























Interactive Weather Map New forecast layout! Learn more

10-Day Weather Forecast

Advertisements
Track Severe Weather on mobile